Etusivu
METAR-TAF:

METAR-TAF

Lentoasemat :

Sierra Blanca Regional Airport

Ruidoso, New Mexico, Yhdysvallat

Leveyspiiri: 33-28N, Pituuspiiri: 105-32W, korkeus merenpinnasta: 2076 m

Tämänhetkinen sää

Tämä raportti tehtiin 5 minuuttia sitten, kello 10.15 UTC
Tuuli 24 kn lännestä/lounaasta puuskistuen 34 kn:hen
Lämpötila 8°C
Kosteus 49%
Ilmanpaine 1008 hPa
Näkyvyys: 16.1 km
selkeää

METAR: KSRR 151015Z AUTO 25024G34KT 10SM CLR 08/M02 A2977 RMK AO2

Aika: 03:20 (10:20 UTC)


TAF: puuttuu

Säähavainnot ja -ennusteet yli 4000 lentoasemalta (METAR- ja TAF-raportit).

Käytössä olevat sääasemat on merkitty karttaan keltaisilla ja punaisilla pisteillä.

Aseta hiiri pisteen päälle nähdäksesi sääaseman nimen.

Klikkaa sitten nähdäksesi säähavainnot ja -ennusteet.

Kartan vaihtaminen: klikkaa mustalla rastilla varustettuja vihreitä pisteitä, niin voit zoomata sisään; viivalla varustettua vihreää pistettä, niin voit zoomata ulos tai vihreitä nuolia, niin pääset viereisille kartoille.


METAR-TAF: